sensor_id;sensor_type;location;lat;lon;timestamp;pressure;altitude;pressure_sealevel;temperature;humidity
61676;BME280;47574;52.090;5.244;2022-09-28T00:00:28;99564.0;;;14.29;59.65
61676;BME280;47574;52.090;5.244;2022-09-28T00:02:04;99562.0;;;14.48;59.35
61676;BME280;47574;52.090;5.244;2022-09-28T00:03:41;99560.0;;;14.56;59.12
61676;BME280;47574;52.090;5.244;2022-09-28T00:06:54;99560.0;;;14.73;58.5
61676;BME280;47574;52.090;5.244;2022-09-28T00:08:30;99559.0;;;14.69;58.84
61676;BME280;47574;52.090;5.244;2022-09-28T00:10:09;99565.0;;;14.38;59.32
61676;BME280;47574;52.090;5.244;2022-09-28T00:13:22;99563.0;;;14.26;59.5
61676;BME280;47574;52.090;5.244;2022-09-28T00:15:00;99563.0;;;14.33;59.26
61676;BME280;47574;52.090;5.244;2022-09-28T00:16:38;99561.0;;;14.28;59.45
61676;BME280;47574;52.090;5.244;2022-09-28T00:18:16;99562.0;;;14.17;59.75
61676;BME280;47574;52.090;5.244;2022-09-28T00:21:32;99559.0;;;14.23;59.69
61676;BME280;47574;52.090;5.244;2022-09-28T00:23:09;99562.0;;;14.44;59.27
61676;BME280;47574;52.090;5.244;2022-09-28T00:24:46;99559.0;;;14.59;59.02
61676;BME280;47574;52.090;5.244;2022-09-28T00:28:00;99561.0;;;14.43;59.3
61676;BME280;47574;52.090;5.244;2022-09-28T00:29:36;99563.0;;;14.3;59.36
61676;BME280;47574;52.090;5.244;2022-09-28T00:31:12;99563.0;;;14.48;59.22
61676;BME280;47574;52.090;5.244;2022-09-28T00:34:24;99560.0;;;14.59;58.89
61676;BME280;47574;52.090;5.244;2022-09-28T00:36:01;99562.0;;;14.53;59.08
61676;BME280;47574;52.090;5.244;2022-09-28T00:37:38;99558.0;;;14.65;58.85
61676;BME280;47574;52.090;5.244;2022-09-28T00:39:14;99552.0;;;14.71;58.86
61676;BME280;47574;52.090;5.244;2022-09-28T00:42:28;99555.0;;;14.76;58.92
61676;BME280;47574;52.090;5.244;2022-09-28T00:45:08;99553.0;;;14.32;59.29
61676;BME280;47574;52.090;5.244;2022-09-28T00:46:44;99549.0;;;14.58;58.86
61676;BME280;47574;52.090;5.244;2022-09-28T00:50:00;99546.0;;;14.52;58.67
61676;BME280;47574;52.090;5.244;2022-09-28T00:53:21;99548.0;;;14.38;59.1
61676;BME280;47574;52.090;5.244;2022-09-28T00:55:03;99550.0;;;14.38;59.14
61676;BME280;47574;52.090;5.244;2022-09-28T00:56:44;99548.0;;;14.35;59.32
61676;BME280;47574;52.090;5.244;2022-09-28T00:58:25;99549.0;;;14.37;59.57
61676;BME280;47574;52.090;5.244;2022-09-28T01:00:06;99542.0;;;14.5;59.15
61676;BME280;47574;52.090;5.244;2022-09-28T01:03:19;99545.0;;;14.19;59.25
61676;BME280;47574;52.090;5.244;2022-09-28T01:04:57;99540.0;;;14.13;59.8
61676;BME280;47574;52.090;5.244;2022-09-28T01:06:35;99538.0;;;14.13;59.53
61676;BME280;47574;52.090;5.244;2022-09-28T01:09:53;99539.0;;;14.22;59.76
61676;BME280;47574;52.090;5.244;2022-09-28T01:11:31;99536.0;;;14.16;59.76
61676;BME280;47574;52.090;5.244;2022-09-28T01:13:09;99533.0;;;14.15;59.77
61676;BME280;47574;52.090;5.244;2022-09-28T01:14:46;99534.0;;;14.38;59.52
61676;BME280;47574;52.090;5.244;2022-09-28T01:18:25;99537.0;;;14.24;59.65
61676;BME280;47574;52.090;5.244;2022-09-28T01:20:25;99531.0;;;13.95;59.91
61676;BME280;47574;52.090;5.244;2022-09-28T01:24:38;99534.0;;;14.15;59.89
61676;BME280;47574;52.090;5.244;2022-09-28T01:26:30;99532.0;;;14.2;59.67
61676;BME280;47574;52.090;5.244;2022-09-28T01:29:10;99527.0;;;13.9;60.35
61676;BME280;47574;52.090;5.244;2022-09-28T01:30:58;99528.0;;;14.09;59.96
61676;BME280;47574;52.090;5.244;2022-09-28T01:32:46;99530.0;;;14.35;59.65
61676;BME280;47574;52.090;5.244;2022-09-28T01:34:32;99525.0;;;14.46;59.5
61676;BME280;47574;52.090;5.244;2022-09-28T01:36:14;99522.0;;;14.44;59.2
61676;BME280;47574;52.090;5.244;2022-09-28T01:37:59;99522.0;;;14.32;59.57
61676;BME280;47574;52.090;5.244;2022-09-28T01:41:21;99522.0;;;14.43;59.87
61676;BME280;47574;52.090;5.244;2022-09-28T01:43:04;99528.0;;;14.63;59.19
61676;BME280;47574;52.090;5.244;2022-09-28T01:44:44;99528.0;;;14.28;59.2
61676;BME280;47574;52.090;5.244;2022-09-28T01:46:27;99530.0;;;14.35;59.62
61676;BME280;47574;52.090;5.244;2022-09-28T01:49:45;99534.0;;;14.28;59.59
61676;BME280;47574;52.090;5.244;2022-09-28T01:51:27;99531.0;;;14.09;59.83
61676;BME280;47574;52.090;5.244;2022-09-28T01:53:18;99532.0;;;14.38;59.4
61676;BME280;47574;52.090;5.244;2022-09-28T01:55:01;99530.0;;;14.57;59.18
61676;BME280;47574;52.090;5.244;2022-09-28T01:56:45;99535.0;;;14.34;59.24
61676;BME280;47574;52.090;5.244;2022-09-28T02:00:11;99530.0;;;14.33;59.38
61676;BME280;47574;52.090;5.244;2022-09-28T02:01:51;99519.0;;;14.4;59.41
61676;BME280;47574;52.090;5.244;2022-09-28T02:03:35;99520.0;;;14.38;59.47
61676;BME280;47574;52.090;5.244;2022-09-28T02:05:17;99523.0;;;14.31;59.57
61676;BME280;47574;52.090;5.244;2022-09-28T02:08:42;99517.0;;;14.52;58.95
61676;BME280;47574;52.090;5.244;2022-09-28T02:10:25;99520.0;;;14.17;59.4
61676;BME280;47574;52.090;5.244;2022-09-28T02:12:09;99516.0;;;14.47;58.9
61676;BME280;47574;52.090;5.244;2022-09-28T02:13:55;99518.0;;;14.18;59.34
61676;BME280;47574;52.090;5.244;2022-09-28T02:18:56;99515.0;;;14.51;58.46
61676;BME280;47574;52.090;5.244;2022-09-28T02:20:35;99522.0;;;14.4;58.75
61676;BME280;47574;52.090;5.244;2022-09-28T02:22:20;99527.0;;;14.31;59.0
61676;BME280;47574;52.090;5.244;2022-09-28T02:24:02;99523.0;;;14.38;58.65
61676;BME280;47574;52.090;5.244;2022-09-28T02:27:31;99527.0;;;14.51;58.82
61676;BME280;47574;52.090;5.244;2022-09-28T02:29:12;99530.0;;;14.16;58.67
61676;BME280;47574;52.090;5.244;2022-09-28T02:30:48;99525.0;;;14.13;59.13
61676;BME280;47574;52.090;5.244;2022-09-28T02:32:25;99518.0;;;14.54;58.57
61676;BME280;47574;52.090;5.244;2022-09-28T02:35:42;99520.0;;;14.34;58.94
61676;BME280;47574;52.090;5.244;2022-09-28T02:37:19;99530.0;;;14.12;58.86
61676;BME280;47574;52.090;5.244;2022-09-28T02:38:58;99528.0;;;14.1;59.11
61676;BME280;47574;52.090;5.244;2022-09-28T02:40:35;99528.0;;;14.19;59.27
61676;BME280;47574;52.090;5.244;2022-09-28T02:44:02;99532.0;;;14.18;58.67
61676;BME280;47574;52.090;5.244;2022-09-28T02:45:50;99531.0;;;14.24;58.78
61676;BME280;47574;52.090;5.244;2022-09-28T02:47:41;99538.0;;;14.31;58.86
61676;BME280;47574;52.090;5.244;2022-09-28T02:49:31;99536.0;;;14.07;59.07
61676;BME280;47574;52.090;5.244;2022-09-28T02:51:19;99536.0;;;14.04;59.12
61676;BME280;47574;52.090;5.244;2022-09-28T02:53:14;99538.0;;;14.37;59.02
61676;BME280;47574;52.090;5.244;2022-09-28T02:56:00;99533.0;;;14.08;59.5
61676;BME280;47574;52.090;5.244;2022-09-28T02:57:53;99535.0;;;14.37;59.25
61676;BME280;47574;52.090;5.244;2022-09-28T02:59:46;99530.0;;;14.43;58.96
61676;BME280;47574;52.090;5.244;2022-09-28T03:01:28;99531.0;;;14.48;58.76
61676;BME280;47574;52.090;5.244;2022-09-28T03:05:05;99535.0;;;14.22;59.26
61676;BME280;47574;52.090;5.244;2022-09-28T03:06:53;99531.0;;;14.13;59.1
61676;BME280;47574;52.090;5.244;2022-09-28T03:08:38;99531.0;;;13.97;59.31
61676;BME280;47574;52.090;5.244;2022-09-28T03:10:22;99531.0;;;14.26;59.07
61676;BME280;47574;52.090;5.244;2022-09-28T03:12:07;99534.0;;;14.17;59.26
61676;BME280;47574;52.090;5.244;2022-09-28T03:15:22;99532.0;;;14.31;58.58
61676;BME280;47574;52.090;5.244;2022-09-28T03:16:59;99536.0;;;14.08;59.23
61676;BME280;47574;52.090;5.244;2022-09-28T03:18:36;99537.0;;;13.89;59.33
61676;BME280;47574;52.090;5.244;2022-09-28T03:20:13;99538.0;;;13.76;59.7
61676;BME280;47574;52.090;5.244;2022-09-28T03:23:26;99541.0;;;14.04;59.49
61676;BME280;47574;52.090;5.244;2022-09-28T03:25:03;99541.0;;;13.75;59.78
61676;BME280;47574;52.090;5.244;2022-09-28T03:26:39;99542.0;;;13.8;59.79
61676;BME280;47574;52.090;5.244;2022-09-28T03:29:52;99544.0;;;13.8;59.72
61676;BME280;47574;52.090;5.244;2022-09-28T03:31:29;99546.0;;;13.88;59.82
61676;BME280;47574;52.090;5.244;2022-09-28T03:33:06;99546.0;;;13.9;59.73
61676;BME280;47574;52.090;5.244;2022-09-28T03:36:18;99548.0;;;13.92;59.78
61676;BME280;47574;52.090;5.244;2022-09-28T03:37:55;99544.0;;;13.96;59.72
61676;BME280;47574;52.090;5.244;2022-09-28T03:39:31;99546.0;;;13.95;59.88
61676;BME280;47574;52.090;5.244;2022-09-28T03:41:08;99546.0;;;14.25;59.36
61676;BME280;47574;52.090;5.244;2022-09-28T03:44:22;99542.0;;;13.88;59.25
61676;BME280;47574;52.090;5.244;2022-09-28T03:45:59;99539.0;;;14.35;58.79
61676;BME280;47574;52.090;5.244;2022-09-28T03:47:36;99537.0;;;14.38;58.67
61676;BME280;47574;52.090;5.244;2022-09-28T03:50:51;99539.0;;;14.24;59.2
61676;BME280;47574;52.090;5.244;2022-09-28T03:52:27;99535.0;;;14.23;58.75
61676;BME280;47574;52.090;5.244;2022-09-28T03:54:04;99531.0;;;14.42;58.52
61676;BME280;47574;52.090;5.244;2022-09-28T03:57:16;99530.0;;;14.28;58.71
61676;BME280;47574;52.090;5.244;2022-09-28T03:58:52;99530.0;;;14.34;58.5
61676;BME280;47574;52.090;5.244;2022-09-28T04:00:29;99531.0;;;14.32;58.43
61676;BME280;47574;52.090;5.244;2022-09-28T04:02:05;99533.0;;;14.06;58.92
61676;BME280;47574;52.090;5.244;2022-09-28T04:05:18;99527.0;;;14.15;58.68
61676;BME280;47574;52.090;5.244;2022-09-28T04:06:55;99532.0;;;14.27;58.57
61676;BME280;47574;52.090;5.244;2022-09-28T04:08:31;99535.0;;;14.06;58.69
61676;BME280;47574;52.090;5.244;2022-09-28T04:11:45;99539.0;;;14.13;58.67
61676;BME280;47574;52.090;5.244;2022-09-28T04:13:22;99540.0;;;14.12;58.75
61676;BME280;47574;52.090;5.244;2022-09-28T04:14:58;99538.0;;;13.92;58.78
61676;BME280;47574;52.090;5.244;2022-09-28T04:18:11;99541.0;;;14.05;58.47
61676;BME280;47574;52.090;5.244;2022-09-28T04:19:47;99540.0;;;13.88;58.98
61676;BME280;47574;52.090;5.244;2022-09-28T04:21:23;99541.0;;;13.81;58.75
61676;BME280;47574;52.090;5.244;2022-09-28T04:22:59;99542.0;;;13.58;59.26
61676;BME280;47574;52.090;5.244;2022-09-28T04:26:13;99545.0;;;13.54;59.38
61676;BME280;47574;52.090;5.244;2022-09-28T04:30:45;99546.0;;;13.66;59.05
61676;BME280;47574;52.090;5.244;2022-09-28T04:32:21;99547.0;;;13.47;59.14
61676;BME280;47574;52.090;5.244;2022-09-28T04:33:57;99549.0;;;13.71;58.83
61676;BME280;47574;52.090;5.244;2022-09-28T04:35:33;99549.0;;;13.44;59.07
61676;BME280;47574;52.090;5.244;2022-09-28T04:38:46;99547.0;;;13.52;59.51
61676;BME280;47574;52.090;5.244;2022-09-28T04:40:22;99550.0;;;13.53;59.4
61676;BME280;47574;52.090;5.244;2022-09-28T04:41:59;99548.0;;;13.67;59.16
61676;BME280;47574;52.090;5.244;2022-09-28T04:45:11;99550.0;;;13.5;59.03
61676;BME280;47574;52.090;5.244;2022-09-28T04:46:47;99550.0;;;13.78;58.71
61676;BME280;47574;52.090;5.244;2022-09-28T04:48:23;99553.0;;;13.69;58.72
61676;BME280;47574;52.090;5.244;2022-09-28T04:51:36;99558.0;;;13.68;58.51
61676;BME280;47574;52.090;5.244;2022-09-28T04:53:12;99558.0;;;13.82;58.75
61676;BME280;47574;52.090;5.244;2022-09-28T04:54:48;99556.0;;;13.98;58.28
61676;BME280;47574;52.090;5.244;2022-09-28T04:58:03;99558.0;;;14.1;58.05
61676;BME280;47574;52.090;5.244;2022-09-28T04:59:40;99556.0;;;14.17;58.03
61676;BME280;47574;52.090;5.244;2022-09-28T05:01:17;99558.0;;;14.08;58.11
61676;BME280;47574;52.090;5.244;2022-09-28T05:02:54;99555.0;;;14.08;58.31
61676;BME280;47574;52.090;5.244;2022-09-28T05:06:08;99556.0;;;13.99;58.28
61676;BME280;47574;52.090;5.244;2022-09-28T05:07:45;99557.0;;;13.92;58.21
61676;BME280;47574;52.090;5.244;2022-09-28T05:09:21;99556.0;;;13.68;58.53
61676;BME280;47574;52.090;5.244;2022-09-28T05:12:36;99557.0;;;13.63;58.41
61676;BME280;47574;52.090;5.244;2022-09-28T05:14:12;99552.0;;;13.8;58.07
61676;BME280;47574;52.090;5.244;2022-09-28T05:15:51;99555.0;;;13.55;58.4
61676;BME280;47574;52.090;5.244;2022-09-28T05:17:28;99558.0;;;13.46;58.72
61676;BME280;47574;52.090;5.244;2022-09-28T05:20:41;99561.0;;;13.52;58.14
61676;BME280;47574;52.090;5.244;2022-09-28T05:22:18;99562.0;;;13.51;57.72
61676;BME280;47574;52.090;5.244;2022-09-28T05:23:55;99565.0;;;13.42;58.16
61676;BME280;47574;52.090;5.244;2022-09-28T05:28:45;99567.0;;;13.28;58.08
61676;BME280;47574;52.090;5.244;2022-09-28T05:30:22;99567.0;;;13.5;57.38
61676;BME280;47574;52.090;5.244;2022-09-28T05:33:37;99567.0;;;13.57;57.39
61676;BME280;47574;52.090;5.244;2022-09-28T05:35:14;99566.0;;;13.43;57.05
61676;BME280;47574;52.090;5.244;2022-09-28T05:36:50;99573.0;;;12.84;58.32
61676;BME280;47574;52.090;5.244;2022-09-28T05:38:26;99584.0;;;12.62;59.04
61676;BME280;47574;52.090;5.244;2022-09-28T05:41:40;99580.0;;;12.73;59.08
61676;BME280;47574;52.090;5.244;2022-09-28T05:43:16;99581.0;;;12.67;59.16
61676;BME280;47574;52.090;5.244;2022-09-28T05:44:52;99581.0;;;12.47;59.89
61676;BME280;47574;52.090;5.244;2022-09-28T05:48:05;99583.0;;;12.48;60.63
61676;BME280;47574;52.090;5.244;2022-09-28T05:49:41;99583.0;;;12.5;60.3
61676;BME280;47574;52.090;5.244;2022-09-28T05:51:17;99581.0;;;12.4;60.82
61676;BME280;47574;52.090;5.244;2022-09-28T05:52:57;99581.0;;;12.41;60.98
61676;BME280;47574;52.090;5.244;2022-09-28T05:56:11;99582.0;;;12.32;61.22
61676;BME280;47574;52.090;5.244;2022-09-28T05:57:47;99583.0;;;12.45;61.15
61676;BME280;47574;52.090;5.244;2022-09-28T05:59:23;99588.0;;;12.71;61.3
61676;BME280;47574;52.090;5.244;2022-09-28T06:02:35;99588.0;;;12.57;61.26
61676;BME280;47574;52.090;5.244;2022-09-28T06:04:12;99583.0;;;13.06;60.05
61676;BME280;47574;52.090;5.244;2022-09-28T06:05:47;99582.0;;;12.9;59.02
61676;BME280;47574;52.090;5.244;2022-09-28T06:09:01;99580.0;;;12.98;58.54
61676;BME280;47574;52.090;5.244;2022-09-28T06:10:37;99580.0;;;12.77;58.78
61676;BME280;47574;52.090;5.244;2022-09-28T06:12:15;99582.0;;;12.51;59.28
61676;BME280;47574;52.090;5.244;2022-09-28T06:13:52;99580.0;;;12.48;59.56
61676;BME280;47574;52.090;5.244;2022-09-28T06:17:07;99582.0;;;12.44;59.73
61676;BME280;47574;52.090;5.244;2022-09-28T06:18:43;99580.0;;;12.41;60.27
61676;BME280;47574;52.090;5.244;2022-09-28T06:20:20;99584.0;;;12.46;60.22
61676;BME280;47574;52.090;5.244;2022-09-28T06:23:32;99583.0;;;12.47;60.59
61676;BME280;47574;52.090;5.244;2022-09-28T06:25:08;99581.0;;;12.48;60.37
61676;BME280;47574;52.090;5.244;2022-09-28T06:26:44;99580.0;;;12.45;60.59
61676;BME280;47574;52.090;5.244;2022-09-28T06:29:56;99577.0;;;12.46;60.72
61676;BME280;47574;52.090;5.244;2022-09-28T06:31:33;99577.0;;;12.63;61.09
61676;BME280;47574;52.090;5.244;2022-09-28T06:33:11;99581.0;;;12.63;60.95
61676;BME280;47574;52.090;5.244;2022-09-28T06:34:49;99577.0;;;12.76;60.73
61676;BME280;47574;52.090;5.244;2022-09-28T06:38:03;99583.0;;;12.66;61.14
61676;BME280;47574;52.090;5.244;2022-09-28T06:39:39;99588.0;;;12.87;61.12
61676;BME280;47574;52.090;5.244;2022-09-28T06:41:17;99593.0;;;12.91;60.99
61676;BME280;47574;52.090;5.244;2022-09-28T06:44:33;99587.0;;;13.0;61.16
61676;BME280;47574;52.090;5.244;2022-09-28T06:46:09;99589.0;;;13.09;61.58
61676;BME280;47574;52.090;5.244;2022-09-28T06:47:45;99590.0;;;13.38;60.88
61676;BME280;47574;52.090;5.244;2022-09-28T06:50:58;99598.0;;;13.13;61.28
61676;BME280;47574;52.090;5.244;2022-09-28T06:52:34;99598.0;;;13.32;60.81
61676;BME280;47574;52.090;5.244;2022-09-28T06:54:10;99593.0;;;13.49;61.28
61676;BME280;47574;52.090;5.244;2022-09-28T06:55:48;99592.0;;;13.64;61.12
61676;BME280;47574;52.090;5.244;2022-09-28T06:59:00;99595.0;;;13.74;61.0
61676;BME280;47574;52.090;5.244;2022-09-28T07:00:37;99596.0;;;13.91;60.73
61676;BME280;47574;52.090;5.244;2022-09-28T07:02:15;99597.0;;;13.84;61.06
61676;BME280;47574;52.090;5.244;2022-09-28T07:05:30;99602.0;;;14.05;60.52
61676;BME280;47574;52.090;5.244;2022-09-28T07:07:08;99603.0;;;13.91;61.06
61676;BME280;47574;52.090;5.244;2022-09-28T07:08:46;99610.0;;;14.06;60.73
61676;BME280;47574;52.090;5.244;2022-09-28T07:10:24;99610.0;;;14.35;60.14
61676;BME280;47574;52.090;5.244;2022-09-28T07:13:39;99617.0;;;14.26;60.49
61676;BME280;47574;52.090;5.244;2022-09-28T07:15:16;99619.0;;;14.31;60.47
61676;BME280;47574;52.090;5.244;2022-09-28T07:16:55;99620.0;;;14.23;60.99
61676;BME280;47574;52.090;5.244;2022-09-28T07:20:08;99622.0;;;14.38;60.75
61676;BME280;47574;52.090;5.244;2022-09-28T07:21:45;99619.0;;;14.6;60.35
61676;BME280;47574;52.090;5.244;2022-09-28T07:23:21;99622.0;;;14.51;60.5
61676;BME280;47574;52.090;5.244;2022-09-28T07:24:58;99626.0;;;14.7;60.26
61676;BME280;47574;52.090;5.244;2022-09-28T07:28:10;99630.0;;;14.79;60.04
61676;BME280;47574;52.090;5.244;2022-09-28T07:29:47;99627.0;;;14.97;59.63
61676;BME280;47574;52.090;5.244;2022-09-28T07:31:24;99630.0;;;15.08;59.29
61676;BME280;47574;52.090;5.244;2022-09-28T07:34:42;99635.0;;;14.83;60.01
61676;BME280;47574;52.090;5.244;2022-09-28T07:36:20;99641.0;;;14.98;60.06
61676;BME280;47574;52.090;5.244;2022-09-28T07:37:59;99643.0;;;15.2;59.57
61676;BME280;47574;52.090;5.244;2022-09-28T07:42:46;99641.0;;;15.3;59.4
61676;BME280;47574;52.090;5.244;2022-09-28T07:44:24;99641.0;;;15.25;59.68
61676;BME280;47574;52.090;5.244;2022-09-28T07:46:00;99642.0;;;15.47;58.92
61676;BME280;47574;52.090;5.244;2022-09-28T07:49:14;99645.0;;;15.5;59.23
61676;BME280;47574;52.090;5.244;2022-09-28T07:50:52;99648.0;;;15.56;59.06
61676;BME280;47574;52.090;5.244;2022-09-28T07:52:29;99649.0;;;15.57;58.74
61676;BME280;47574;52.090;5.244;2022-09-28T07:55:41;99644.0;;;15.59;58.36
61676;BME280;47574;52.090;5.244;2022-09-28T07:57:18;99646.0;;;15.89;58.39
61676;BME280;47574;52.090;5.244;2022-09-28T07:58:55;99649.0;;;15.97;58.16
61676;BME280;47574;52.090;5.244;2022-09-28T08:02:08;99652.0;;;15.92;58.4
61676;BME280;47574;52.090;5.244;2022-09-28T08:03:46;99650.0;;;15.87;58.47
61676;BME280;47574;52.090;5.244;2022-09-28T08:05:22;99648.0;;;16.11;57.75
61676;BME280;47574;52.090;5.244;2022-09-28T08:06:59;99649.0;;;16.28;57.81
61676;BME280;47574;52.090;5.244;2022-09-28T08:10:12;99648.0;;;16.34;57.52
61676;BME280;47574;52.090;5.244;2022-09-28T08:11:48;99655.0;;;16.09;58.25
61676;BME280;47574;52.090;5.244;2022-09-28T08:13:25;99651.0;;;16.09;58.53
61676;BME280;47574;52.090;5.244;2022-09-28T08:16:37;99655.0;;;16.09;58.68
61676;BME280;47574;52.090;5.244;2022-09-28T08:18:13;99660.0;;;16.27;57.74
61676;BME280;47574;52.090;5.244;2022-09-28T08:22:43;99665.0;;;16.68;57.01
61676;BME280;47574;52.090;5.244;2022-09-28T08:24:19;99667.0;;;16.78;56.15
61676;BME280;47574;52.090;5.244;2022-09-28T08:25:56;99669.0;;;16.7;56.97
61676;BME280;47574;52.090;5.244;2022-09-28T08:29:10;99670.0;;;16.8;57.03
61676;BME280;47574;52.090;5.244;2022-09-28T08:30:47;99670.0;;;16.66;56.23
61676;BME280;47574;52.090;5.244;2022-09-28T08:32:23;99670.0;;;16.5;56.98
61676;BME280;47574;52.090;5.244;2022-09-28T08:35:35;99674.0;;;16.68;55.99
61676;BME280;47574;52.090;5.244;2022-09-28T08:37:12;99677.0;;;16.86;55.33
61676;BME280;47574;52.090;5.244;2022-09-28T08:38:48;99680.0;;;16.97;55.45
61676;BME280;47574;52.090;5.244;2022-09-28T08:40:25;99682.0;;;17.13;55.06
61676;BME280;47574;52.090;5.244;2022-09-28T08:44:07;99686.0;;;17.09;55.28
61676;BME280;47574;52.090;5.244;2022-09-28T08:45:46;99685.0;;;17.16;55.4
61676;BME280;47574;52.090;5.244;2022-09-28T08:51:01;99687.0;;;17.23;53.54
61676;BME280;47574;52.090;5.244;2022-09-28T08:54:45;99686.0;;;17.45;52.67
61676;BME280;47574;52.090;5.244;2022-09-28T08:56:29;99687.0;;;17.59;52.13
61676;BME280;47574;52.090;5.244;2022-09-28T08:58:13;99684.0;;;17.77;51.23
61676;BME280;47574;52.090;5.244;2022-09-28T08:59:52;99688.0;;;17.87;51.0
61676;BME280;47574;52.090;5.244;2022-09-28T09:01:33;99691.0;;;17.56;52.74
61676;BME280;47574;52.090;5.244;2022-09-28T09:04:54;99694.0;;;17.7;52.27
61676;BME280;47574;52.090;5.244;2022-09-28T09:06:46;99696.0;;;17.43;51.86
61676;BME280;47574;52.090;5.244;2022-09-28T09:08:38;99695.0;;;17.7;50.75
61676;BME280;47574;52.090;5.244;2022-09-28T09:10:35;99703.0;;;17.45;50.64
61676;BME280;47574;52.090;5.244;2022-09-28T09:12:25;99703.0;;;17.81;50.55
61676;BME280;47574;52.090;5.244;2022-09-28T09:14:17;99705.0;;;17.95;50.33
61676;BME280;47574;52.090;5.244;2022-09-28T09:17:09;99707.0;;;17.57;50.49
61676;BME280;47574;52.090;5.244;2022-09-28T09:18:54;99707.0;;;17.78;50.85
61676;BME280;47574;52.090;5.244;2022-09-28T09:20:43;99710.0;;;18.0;50.49
61676;BME280;47574;52.090;5.244;2022-09-28T09:22:37;99708.0;;;18.13;51.25
61676;BME280;47574;52.090;5.244;2022-09-28T09:24:23;99709.0;;;17.75;51.39
61676;BME280;47574;52.090;5.244;2022-09-28T09:27:59;99712.0;;;18.0;51.45
61676;BME280;47574;52.090;5.244;2022-09-28T09:29:57;99710.0;;;17.52;51.27
61676;BME280;47574;52.090;5.244;2022-09-28T09:31:47;99711.0;;;17.84;51.23
61676;BME280;47574;52.090;5.244;2022-09-28T09:33:45;99711.0;;;17.93;51.9
61676;BME280;47574;52.090;5.244;2022-09-28T09:35:48;99709.0;;;17.71;52.0
61676;BME280;47574;52.090;5.244;2022-09-28T09:38:31;99714.0;;;17.46;52.49
61676;BME280;47574;52.090;5.244;2022-09-28T09:40:28;99713.0;;;17.64;52.55
61676;BME280;47574;52.090;5.244;2022-09-28T09:42:22;99715.0;;;17.68;52.68
61676;BME280;47574;52.090;5.244;2022-09-28T09:44:13;99711.0;;;17.89;52.45
61676;BME280;47574;52.090;5.244;2022-09-28T09:46:16;99712.0;;;17.95;52.2
61676;BME280;47574;52.090;5.244;2022-09-28T09:47:59;99708.0;;;18.43;51.6
61676;BME280;47574;52.090;5.244;2022-09-28T09:49:39;99712.0;;;18.66;50.76
61676;BME280;47574;52.090;5.244;2022-09-28T09:53:08;99715.0;;;18.62;52.04
61676;BME280;47574;52.090;5.244;2022-09-28T09:54:54;99714.0;;;18.75;50.47
61676;BME280;47574;52.090;5.244;2022-09-28T09:56:36;99711.0;;;18.75;49.46
61676;BME280;47574;52.090;5.244;2022-09-28T09:58:20;99708.0;;;18.75;49.13
61676;BME280;47574;52.090;5.244;2022-09-28T10:00:01;99712.0;;;18.75;48.89
61676;BME280;47574;52.090;5.244;2022-09-28T10:03:20;99708.0;;;18.95;49.36
61676;BME280;47574;52.090;5.244;2022-09-28T10:05:03;99705.0;;;19.11;47.33
61676;BME280;47574;52.090;5.244;2022-09-28T10:06:42;99712.0;;;18.7;49.07
61676;BME280;47574;52.090;5.244;2022-09-28T10:08:20;99708.0;;;19.07;48.75
61676;BME280;47574;52.090;5.244;2022-09-28T10:11:41;99712.0;;;18.91;48.7
61676;BME280;47574;52.090;5.244;2022-09-28T10:13:18;99714.0;;;19.09;48.82
61676;BME280;47574;52.090;5.244;2022-09-28T10:14:55;99712.0;;;19.22;47.14
61676;BME280;47574;52.090;5.244;2022-09-28T10:16:32;99713.0;;;19.02;45.81
61676;BME280;47574;52.090;5.244;2022-09-28T10:19:50;99713.0;;;19.0;47.77
61676;BME280;47574;52.090;5.244;2022-09-28T10:21:26;99713.0;;;19.09;47.05
61676;BME280;47574;52.090;5.244;2022-09-28T10:23:07;99711.0;;;19.03;48.99
61676;BME280;47574;52.090;5.244;2022-09-28T10:26:33;99712.0;;;18.98;48.08
61676;BME280;47574;52.090;5.244;2022-09-28T10:28:17;99708.0;;;19.21;47.73
61676;BME280;47574;52.090;5.244;2022-09-28T10:29:59;99710.0;;;19.37;46.85
61676;BME280;47574;52.090;5.244;2022-09-28T10:31:40;99716.0;;;19.32;45.14
61676;BME280;47574;52.090;5.244;2022-09-28T10:33:33;99715.0;;;19.34;43.61
61676;BME280;47574;52.090;5.244;2022-09-28T10:36:59;99710.0;;;19.2;44.39
61676;BME280;47574;52.090;5.244;2022-09-28T10:38:37;99714.0;;;19.55;45.65
61676;BME280;47574;52.090;5.244;2022-09-28T10:40:46;99716.0;;;19.29;44.31
61676;BME280;47574;52.090;5.244;2022-09-28T10:42:27;99714.0;;;19.5;45.35
61676;BME280;47574;52.090;5.244;2022-09-28T10:44:11;99716.0;;;19.75;44.79
61676;BME280;47574;52.090;5.244;2022-09-28T10:46:03;99718.0;;;20.03;45.08
61676;BME280;47574;52.090;5.244;2022-09-28T10:49:20;99715.0;;;20.27;44.11
61676;BME280;47574;52.090;5.244;2022-09-28T10:51:00;99713.0;;;20.2;42.3
61676;BME280;47574;52.090;5.244;2022-09-28T10:52:40;99717.0;;;20.2;42.95
61676;BME280;47574;52.090;5.244;2022-09-28T10:54:18;99720.0;;;19.95;42.85
61676;BME280;47574;52.090;5.244;2022-09-28T10:57:36;99719.0;;;20.0;42.64
61676;BME280;47574;52.090;5.244;2022-09-28T10:59:44;99718.0;;;19.95;42.15
61676;BME280;47574;52.090;5.244;2022-09-28T11:01:23;99717.0;;;19.8;42.64
61676;BME280;47574;52.090;5.244;2022-09-28T11:03:01;99718.0;;;19.95;43.78
61676;BME280;47574;52.090;5.244;2022-09-28T11:06:24;99713.0;;;19.98;41.54
61676;BME280;47574;52.090;5.244;2022-09-28T11:08:04;99710.0;;;20.11;41.43
61676;BME280;47574;52.090;5.244;2022-09-28T11:09:45;99703.0;;;20.11;41.0
61676;BME280;47574;52.090;5.244;2022-09-28T11:11:24;99710.0;;;19.84;42.97
61676;BME280;47574;52.090;5.244;2022-09-28T11:13:01;99705.0;;;20.07;41.92
61676;BME280;47574;52.090;5.244;2022-09-28T11:16:21;99707.0;;;20.06;43.03
61676;BME280;47574;52.090;5.244;2022-09-28T11:18:17;99711.0;;;20.3;42.51
61676;BME280;47574;52.090;5.244;2022-09-28T11:19:55;99703.0;;;20.16;42.34
61676;BME280;47574;52.090;5.244;2022-09-28T11:21:40;99706.0;;;20.11;43.26
61676;BME280;47574;52.090;5.244;2022-09-28T11:25:30;99707.0;;;20.34;41.44
61676;BME280;47574;52.090;5.244;2022-09-28T11:27:18;99712.0;;;20.72;40.81
61676;BME280;47574;52.090;5.244;2022-09-28T11:28:56;99712.0;;;20.45;41.3
61676;BME280;47574;52.090;5.244;2022-09-28T11:30:38;99716.0;;;20.28;42.46
61676;BME280;47574;52.090;5.244;2022-09-28T11:32:19;99732.0;;;19.97;45.71